Time;durP1;ratioP1;P1;durP2;ratioP2;P2;SDS_P1;SDS_P2;PMS_P1;PMS_P2;Temp;Humidity;BMP_temperature;BMP_pressure;BME280_temperature;BME280_humidity;BME280_pressure;Samples;Min_cycle;Max_cycle;Signal;HPM_P1;HPM_P2
2022/10/25 00:01:37;;;;;;;52.05;21.85;;;11.60;99.90;;;;;;4993917;28;20046;-68
2022/10/25 00:04:05;;;;;;;48.55;23.67;;;11.60;99.90;;;;;;4959628;28;20154;-68
2022/10/25 00:06:38;;;;;;;46.67;23.83;;;11.60;99.90;;;;;;4977599;28;20126;-68
2022/10/25 00:09:05;;;;;;;48.33;21.98;;;11.50;99.90;;;;;;5044491;28;20055;-66
2022/10/25 00:11:33;;;;;;;41.80;19.75;;;11.50;99.90;;;;;;4984279;28;20069;-68
2022/10/25 00:14:05;;;;;;;50.58;20.25;;;11.60;99.90;;;;;;4988724;28;20129;-68
2022/10/25 00:16:36;;;;;;;47.15;22.80;;;11.60;99.90;;;;;;4993344;28;20129;-69
2022/10/25 00:19:03;;;;;;;46.42;21.00;;;11.60;99.90;;;;;;4974060;28;20134;-68
2022/10/25 00:21:31;;;;;;;40.63;21.58;;;11.60;99.90;;;;;;4973709;28;20050;-68
2022/10/25 00:23:58;;;;;;;39.65;22.70;;;11.60;99.90;;;;;;4973395;28;20039;-67
2022/10/25 00:26:26;;;;;;;43.42;20.92;;;11.60;99.90;;;;;;4973662;28;20078;-68
2022/10/25 00:28:55;;;;;;;46.25;21.48;;;11.60;99.90;;;;;;4973034;28;20088;-67
2022/10/25 00:31:24;;;;;;;45.42;23.55;;;11.60;99.90;;;;;;4973614;28;20451;-67
2022/10/25 00:33:51;;;;;;;47.22;24.08;;;11.50;99.90;;;;;;4960073;28;20073;-65
2022/10/25 00:36:21;;;;;;;49.00;24.98;;;11.60;99.90;;;;;;4979706;28;20506;-67
2022/10/25 00:38:49;;;;;;;55.47;26.20;;;11.50;99.90;;;;;;4975271;28;20126;-66
2022/10/25 00:41:18;;;;;;;46.03;25.17;;;11.50;99.90;;;;;;4975532;28;20122;-66
2022/10/25 00:43:47;;;;;;;52.15;26.88;;;11.40;99.90;;;;;;4978668;28;20407;-67
2022/10/25 00:46:22;;;;;;;45.78;21.75;;;11.40;99.90;;;;;;4974110;28;20053;-69
2022/10/25 00:48:54;;;;;;;43.40;19.88;;;11.40;99.90;;;;;;4973580;28;20043;-66
2022/10/25 00:51:24;;;;;;;35.35;19.27;;;11.30;99.90;;;;;;4975225;28;20093;-67
2022/10/25 00:53:51;;;;;;;42.25;20.50;;;11.30;99.90;;;;;;4974862;28;20084;-67
2022/10/25 00:56:21;;;;;;;40.42;19.80;;;11.30;99.90;;;;;;4974183;28;20098;-67
2022/10/25 00:58:54;;;;;;;43.63;20.60;;;11.30;99.90;;;;;;4973882;28;20073;-67
2022/10/25 01:01:23;;;;;;;37.35;18.80;;;11.40;99.90;;;;;;4973731;28;20122;-66
2022/10/25 01:03:56;;;;;;;43.22;19.65;;;11.40;99.90;;;;;;4972833;28;20047;-67
2022/10/25 01:06:28;;;;;;;37.13;17.92;;;11.40;99.90;;;;;;4972945;28;20050;-66
2022/10/25 01:08:56;;;;;;;41.47;17.00;;;11.50;99.90;;;;;;4973322;28;20043;-68
2022/10/25 01:11:24;;;;;;;42.42;17.67;;;11.50;99.90;;;;;;4973367;28;20069;-68
2022/10/25 01:13:52;;;;;;;38.72;16.85;;;11.50;99.90;;;;;;4972553;28;20062;-68
2022/10/25 01:16:26;;;;;;;39.78;18.23;;;11.50;99.90;;;;;;4973185;28;20046;-68
2022/10/25 01:19:02;;;;;;;37.70;17.38;;;11.40;99.90;;;;;;4973402;28;20470;-67
2022/10/25 01:21:48;;;;;;;32.92;16.10;;;11.40;99.90;;;;;;4972821;28;20046;-68
2022/10/25 01:24:55;;;;;;;38.13;15.52;;;11.40;99.90;;;;;;4972390;28;20043;-67
2022/10/25 01:27:55;;;;;;;30.20;14.68;;;11.40;99.90;;;;;;4973221;28;20402;-67
2022/10/25 01:30:26;;;;;;;32.13;15.68;;;11.30;99.90;;;;;;5018206;28;20059;-67
2022/10/25 01:33:15;;;;;;;33.63;15.20;;;11.20;99.90;;;;;;5019645;28;20143;-67
2022/10/25 01:35:51;;;;;;;40.08;15.52;;;11.20;99.90;;;;;;4966423;28;20470;-65
2022/10/25 01:38:39;;;;;;;36.55;15.90;;;11.30;99.90;;;;;;4961895;28;20113;-65
2022/10/25 01:41:16;;;;;;;40.38;17.52;;;11.30;99.90;;;;;;5036534;28;20082;-66
2022/10/25 01:43:54;;;;;;;36.38;17.55;;;11.30;99.90;;;;;;4963198;28;20049;-66
2022/10/25 01:46:31;;;;;;;33.30;17.48;;;11.20;99.90;;;;;;4972031;28;20077;-65
2022/10/25 01:49:04;;;;;;;31.30;18.25;;;11.20;99.90;;;;;;4966429;28;20040;-63
2022/10/25 01:51:34;;;;;;;39.35;18.48;;;11.20;99.90;;;;;;5019775;28;20089;-66
2022/10/25 01:54:02;;;;;;;37.60;18.63;;;11.10;99.90;;;;;;4952874;28;20478;-66
2022/10/25 01:56:38;;;;;;;35.08;18.73;;;11.00;99.90;;;;;;4953397;29;20054;-65
2022/10/25 01:59:21;;;;;;;43.25;19.88;;;11.00;99.90;;;;;;4953254;28;20085;-66
2022/10/25 02:02:00;;;;;;;32.92;18.15;;;11.00;99.90;;;;;;5019555;28;20402;-66
2022/10/25 02:04:40;;;;;;;42.70;18.42;;;11.00;99.90;;;;;;4952895;28;20035;-66
2022/10/25 02:07:11;;;;;;;38.55;17.10;;;11.00;99.90;;;;;;4953153;28;20049;-66
2022/10/25 02:09:48;;;;;;;38.95;19.20;;;11.00;99.90;;;;;;4952597;28;20564;-66
2022/10/25 02:12:24;;;;;;;53.88;26.98;;;10.90;99.90;;;;;;4952854;29;20047;-66
2022/10/25 02:14:59;;;;;;;38.35;20.80;;;11.00;99.90;;;;;;4952625;28;20074;-66
2022/10/25 02:17:28;;;;;;;39.63;17.63;;;11.00;99.90;;;;;;4953107;29;20051;-66
2022/10/25 02:19:59;;;;;;;34.50;15.65;;;11.00;99.90;;;;;;4953124;28;20048;-66
2022/10/25 02:22:30;;;;;;;38.85;16.83;;;11.00;99.90;;;;;;5020219;28;20085;-65
2022/10/25 02:24:58;;;;;;;45.03;19.10;;;11.00;99.90;;;;;;4964283;28;20043;-66
2022/10/25 02:27:26;;;;;;;40.38;18.20;;;10.90;99.90;;;;;;5038838;28;20100;-65
2022/10/25 02:29:54;;;;;;;34.10;17.23;;;10.90;99.90;;;;;;5025006;28;20039;-66
2022/10/25 02:32:22;;;;;;;36.10;17.50;;;10.90;99.90;;;;;;4961021;28;20438;-66
2022/10/25 02:34:50;;;;;;;37.60;17.55;;;10.90;99.90;;;;;;4952501;28;20055;-66
2022/10/25 02:37:19;;;;;;;33.67;15.93;;;10.90;99.90;;;;;;4952565;28;20051;-66
2022/10/25 02:39:46;;;;;;;39.58;16.25;;;10.90;99.90;;;;;;4957547;28;20088;-66
2022/10/25 02:42:13;;;;;;;38.10;17.10;;;10.80;99.90;;;;;;4997181;28;20054;-66
2022/10/25 02:44:41;;;;;;;36.40;17.40;;;10.70;99.90;;;;;;4971878;28;20049;-66
2022/10/25 02:47:08;;;;;;;41.47;16.52;;;10.70;99.90;;;;;;4972907;28;20046;-66
2022/10/25 02:49:35;;;;;;;37.83;17.45;;;10.70;99.90;;;;;;4961199;28;20047;-66
2022/10/25 02:52:02;;;;;;;30.48;15.52;;;10.70;99.90;;;;;;4953213;28;20500;-66
2022/10/25 02:54:31;;;;;;;38.03;16.83;;;10.60;99.90;;;;;;4952436;29;20043;-66
2022/10/25 02:56:58;;;;;;;32.92;16.90;;;10.60;99.90;;;;;;4952783;29;20043;-66
2022/10/25 02:59:26;;;;;;;33.03;17.55;;;10.60;99.90;;;;;;4952105;28;20085;-67
2022/10/25 03:01:53;;;;;;;38.30;17.42;;;10.60;99.90;;;;;;4952449;28;20078;-66
2022/10/25 03:04:20;;;;;;;37.13;17.55;;;10.50;99.90;;;;;;4952796;28;20556;-66
2022/10/25 03:06:47;;;;;;;40.13;17.25;;;10.50;99.90;;;;;;4953517;28;20078;-66
2022/10/25 03:09:15;;;;;;;31.58;17.08;;;10.40;99.90;;;;;;4955356;28;20050;-66
2022/10/25 03:11:43;;;;;;;37.75;19.73;;;10.40;99.90;;;;;;4958754;28;20043;-66
2022/10/25 03:14:11;;;;;;;44.50;19.58;;;10.30;99.90;;;;;;4957384;28;20701;-66
2022/10/25 03:16:38;;;;;;;38.85;17.90;;;10.30;99.90;;;;;;4951794;28;20055;-66
2022/10/25 03:19:05;;;;;;;38.17;18.67;;;10.30;99.90;;;;;;4951295;28;20031;-66
2022/10/25 03:21:32;;;;;;;41.88;17.20;;;10.30;99.90;;;;;;4963408;28;20101;-66
2022/10/25 03:24:00;;;;;;;31.27;15.88;;;10.30;99.90;;;;;;4959385;28;20112;-66
2022/10/25 03:26:28;;;;;;;35.20;17.17;;;10.30;99.90;;;;;;4965523;28;20150;-66
2022/10/25 03:28:57;;;;;;;32.22;15.82;;;10.30;99.90;;;;;;4954206;28;20062;-66
2022/10/25 03:31:25;;;;;;;29.00;16.13;;;10.30;99.90;;;;;;4962883;28;20130;-66
2022/10/25 03:33:52;;;;;;;33.47;17.00;;;10.30;99.90;;;;;;4962822;28;20066;-66
2022/10/25 03:36:19;;;;;;;34.05;15.80;;;10.30;99.90;;;;;;4951646;29;20059;-66
2022/10/25 03:38:46;;;;;;;32.00;15.35;;;10.30;99.90;;;;;;4951868;29;20069;-65
2022/10/25 03:41:14;;;;;;;30.65;14.45;;;10.30;99.90;;;;;;5026220;28;20141;-66
2022/10/25 03:43:41;;;;;;;33.53;16.58;;;10.20;99.90;;;;;;4964088;28;20104;-66
2022/10/25 03:46:10;;;;;;;33.17;16.10;;;10.20;99.90;;;;;;4965688;28;20039;-66
2022/10/25 03:48:37;;;;;;;38.17;15.98;;;10.20;99.90;;;;;;4955064;28;20047;-66
2022/10/25 03:51:04;;;;;;;39.65;16.27;;;10.20;99.90;;;;;;4955219;28;20071;-66
2022/10/25 03:53:32;;;;;;;32.88;16.20;;;10.20;99.90;;;;;;4954739;29;20047;-66
2022/10/25 03:55:59;;;;;;;36.55;16.75;;;10.20;99.90;;;;;;5021836;28;20052;-66
2022/10/25 03:58:26;;;;;;;42.40;19.13;;;10.30;99.90;;;;;;4955290;28;20118;-67
2022/10/25 04:00:54;;;;;;;56.65;20.55;;;10.30;99.90;;;;;;4955426;28;20055;-66
2022/10/25 04:03:22;;;;;;;36.25;17.55;;;10.30;99.90;;;;;;4954501;29;20475;-66
2022/10/25 04:05:50;;;;;;;35.72;18.10;;;10.30;99.90;;;;;;5017987;28;20109;-66
2022/10/25 04:08:17;;;;;;;37.53;18.05;;;10.30;99.90;;;;;;4972440;28;20046;-66
2022/10/25 04:10:44;;;;;;;38.30;18.88;;;10.30;99.90;;;;;;4974593;28;20043;-66
2022/10/25 04:13:11;;;;;;;38.53;18.83;;;10.30;99.90;;;;;;4974104;28;20054;-66
2022/10/25 04:15:39;;;;;;;42.30;23.23;;;10.30;99.90;;;;;;4974475;28;20047;-66
2022/10/25 04:18:06;;;;;;;53.15;30.42;;;10.30;99.90;;;;;;4973910;28;20499;-66
2022/10/25 04:20:35;;;;;;;51.75;25.70;;;10.20;99.90;;;;;;4974183;28;20042;-65
2022/10/25 04:23:02;;;;;;;38.10;23.63;;;10.10;99.90;;;;;;4973766;28;20047;-64
2022/10/25 04:25:29;;;;;;;44.80;20.92;;;10.10;99.90;;;;;;4973792;28;20470;-65
2022/10/25 04:27:59;;;;;;;36.20;18.90;;;10.10;99.90;;;;;;4973781;28;20054;-65
2022/10/25 04:30:26;;;;;;;42.08;19.70;;;10.10;99.90;;;;;;4973764;28;20043;-66
2022/10/25 04:32:53;;;;;;;41.72;20.33;;;10.10;99.90;;;;;;5040346;28;20391;-66
2022/10/25 04:35:21;;;;;;;51.70;23.15;;;10.10;99.90;;;;;;4966474;28;20051;-66
2022/10/25 04:37:50;;;;;;;48.30;21.90;;;10.00;99.90;;;;;;4998512;28;20073;-66
2022/10/25 04:40:18;;;;;;;43.30;22.58;;;10.10;99.90;;;;;;4973961;28;20035;-65
2022/10/25 04:42:45;;;;;;;51.35;24.27;;;10.10;99.90;;;;;;4973094;28;20431;-66
2022/10/25 04:45:12;;;;;;;48.88;24.83;;;10.10;99.90;;;;;;4973898;28;20127;-65
2022/10/25 04:47:39;;;;;;;47.88;23.80;;;10.10;99.90;;;;;;4974016;28;20053;-66
2022/10/25 04:50:07;;;;;;;39.60;19.17;;;10.10;99.90;;;;;;4974244;28;20535;-66
2022/10/25 04:52:35;;;;;;;32.78;15.13;;;10.20;99.90;;;;;;5040125;28;20047;-66
2022/10/25 04:55:04;;;;;;;37.75;16.33;;;10.20;99.90;;;;;;4973109;28;20043;-65
2022/10/25 04:57:31;;;;;;;33.88;15.95;;;10.30;99.90;;;;;;4972734;28;20039;-65
2022/10/25 04:59:58;;;;;;;41.13;17.70;;;10.30;99.90;;;;;;4973559;28;20409;-65
2022/10/25 05:02:26;;;;;;;34.58;18.27;;;10.30;99.90;;;;;;4973312;28;20047;-65
2022/10/25 05:04:53;;;;;;;46.53;20.17;;;10.30;99.90;;;;;;4966876;28;20043;-65
2022/10/25 05:07:21;;;;;;;44.88;21.15;;;10.30;99.90;;;;;;4965176;28;20415;-66
2022/10/25 05:09:48;;;;;;;40.30;19.33;;;10.20;99.90;;;;;;4972973;28;20067;-65
2022/10/25 05:12:17;;;;;;;52.22;21.20;;;10.20;99.90;;;;;;4973034;28;20043;-65
2022/10/25 05:14:44;;;;;;;41.30;21.50;;;10.30;99.90;;;;;;4962308;28;20096;-65
2022/10/25 05:17:11;;;;;;;42.08;22.13;;;10.30;99.90;;;;;;4963149;28;20097;-65
2022/10/25 05:19:39;;;;;;;44.58;20.75;;;10.30;99.90;;;;;;4964016;28;20050;-64
2022/10/25 05:22:06;;;;;;;37.38;18.60;;;10.30;99.90;;;;;;4960161;28;20051;-66
2022/10/25 05:24:33;;;;;;;38.95;18.52;;;10.30;99.90;;;;;;4964422;28;20390;-65
2022/10/25 05:27:00;;;;;;;33.78;17.70;;;10.20;99.90;;;;;;4972554;28;20047;-65
2022/10/25 05:29:29;;;;;;;36.05;17.88;;;10.30;99.90;;;;;;5038915;28;20039;-64
2022/10/25 05:31:56;;;;;;;37.30;18.67;;;10.40;99.90;;;;;;4972427;28;20440;-65
2022/10/25 05:34:24;;;;;;;42.83;24.25;;;10.40;99.90;;;;;;4964658;28;20494;-64
2022/10/25 05:36:51;;;;;;;53.13;26.48;;;10.50;99.90;;;;;;4961291;28;20101;-65
2022/10/25 05:39:18;;;;;;;44.60;23.65;;;10.60;99.90;;;;;;4963062;28;20560;-65
2022/10/25 05:41:46;;;;;;;46.38;24.83;;;10.70;99.90;;;;;;4964693;28;20055;-64
2022/10/25 05:44:15;;;;;;;44.53;24.63;;;10.70;99.90;;;;;;4972226;28;20047;-65
2022/10/25 05:46:44;;;;;;;44.97;23.92;;;10.70;99.90;;;;;;4972571;28;20046;-64
2022/10/25 05:49:13;;;;;;;49.58;24.45;;;10.80;99.90;;;;;;4973404;28;20047;-65
2022/10/25 05:51:40;;;;;;;45.45;25.38;;;10.90;99.90;;;;;;4962097;28;20402;-64
2022/10/25 05:54:10;;;;;;;47.90;24.75;;;11.10;99.90;;;;;;4968786;28;20082;-65
2022/10/25 05:56:38;;;;;;;48.03;25.77;;;11.10;99.90;;;;;;4972398;28;20043;-65
2022/10/25 05:59:07;;;;;;;48.35;25.23;;;11.20;99.90;;;;;;4972672;28;20478;-65
2022/10/25 06:01:36;;;;;;;40.47;23.73;;;11.30;99.90;;;;;;4972395;28;20078;-66
2022/10/25 06:04:05;;;;;;;46.10;23.10;;;11.30;99.90;;;;;;4972325;28;20046;-65
2022/10/25 06:06:33;;;;;;;43.95;19.92;;;11.30;99.90;;;;;;4972752;28;20120;-65
2022/10/25 06:09:01;;;;;;;38.50;20.23;;;11.40;99.90;;;;;;4971781;28;20444;-64
2022/10/25 06:11:29;;;;;;;47.28;22.60;;;11.40;99.90;;;;;;4972301;28;20050;-64
2022/10/25 06:13:56;;;;;;;42.53;22.70;;;11.40;99.90;;;;;;4971525;28;20047;-66
2022/10/25 06:16:24;;;;;;;53.90;20.98;;;11.40;99.90;;;;;;4971969;28;20046;-66
2022/10/25 06:18:52;;;;;;;49.80;21.90;;;11.40;99.90;;;;;;4962293;28;20134;-64
2022/10/25 06:21:23;;;;;;;46.33;23.80;;;11.50;99.90;;;;;;4962019;28;20093;-68
2022/10/25 06:23:51;;;;;;;60.20;27.58;;;11.50;99.90;;;;;;4963527;28;20097;-66
2022/10/25 06:26:20;;;;;;;50.47;22.90;;;11.60;99.90;;;;;;4996811;28;20051;-66
2022/10/25 06:28:47;;;;;;;46.97;21.58;;;11.80;99.90;;;;;;5038499;28;20104;-66
2022/10/25 06:31:16;;;;;;;37.78;18.98;;;11.90;99.90;;;;;;5033418;28;20043;-66
2022/10/25 06:33:44;;;;;;;48.83;20.13;;;12.10;99.90;;;;;;4955609;28;20568;-66
2022/10/25 06:36:15;;;;;;;45.65;19.83;;;12.10;99.90;;;;;;5026948;28;20105;-67
2022/10/25 06:38:44;;;;;;;42.22;19.95;;;12.30;99.90;;;;;;5008196;28;20511;-65
2022/10/25 06:41:14;;;;;;;51.08;21.67;;;12.30;99.90;;;;;;4970772;28;20071;-66
2022/10/25 06:43:41;;;;;;;54.75;29.67;;;12.30;99.90;;;;;;4999505;28;20051;-66
2022/10/25 06:46:10;;;;;;;53.95;24.85;;;12.30;99.90;;;;;;4974183;28;20108;-66
2022/10/25 06:48:37;;;;;;;44.78;23.98;;;12.30;99.90;;;;;;4972612;28;20039;-65
2022/10/25 06:51:08;;;;;;;56.70;25.55;;;12.50;99.90;;;;;;4971926;28;20043;-64
2022/10/25 06:53:36;;;;;;;47.58;26.40;;;12.60;99.90;;;;;;5038007;28;20417;-65
2022/10/25 06:56:06;;;;;;;49.22;25.77;;;12.90;99.90;;;;;;4971682;28;20073;-66
2022/10/25 06:58:35;;;;;;;48.83;22.83;;;13.30;99.90;;;;;;4971226;28;20075;-65
2022/10/25 07:01:02;;;;;;;40.92;21.08;;;13.60;99.90;;;;;;4971280;28;20062;-66
2022/10/25 07:03:33;;;;;;;45.80;23.05;;;13.80;99.90;;;;;;4970725;28;20520;-65
2022/10/25 07:06:02;;;;;;;44.50;24.48;;;13.90;99.90;;;;;;4971844;28;20175;-67
2022/10/25 07:08:29;;;;;;;44.55;24.50;;;14.20;99.90;;;;;;4971782;28;20671;-67
2022/10/25 07:10:56;;;;;;;48.95;23.85;;;14.50;99.90;;;;;;4972744;28;20088;-65
2022/10/25 07:13:26;;;;;;;46.95;24.23;;;14.80;99.90;;;;;;4972496;28;20078;-65
2022/10/25 07:15:53;;;;;;;45.00;23.17;;;15.10;99.90;;;;;;4972687;28;20039;-66
2022/10/25 07:18:20;;;;;;;49.75;25.70;;;15.40;99.90;;;;;;4972831;28;20066;-66
2022/10/25 07:20:49;;;;;;;52.38;24.88;;;15.80;99.90;;;;;;4973134;28;20038;-66
2022/10/25 07:23:16;;;;;;;49.35;28.55;;;15.90;99.90;;;;;;4975471;28;20054;-66
2022/10/25 07:25:44;;;;;;;50.42;25.45;;;15.90;99.90;;;;;;5045580;28;20402;-66
2022/10/25 07:28:12;;;;;;;44.72;23.08;;;15.90;99.90;;;;;;4982073;28;20061;-66
2022/10/25 07:30:46;;;;;;;46.95;21.98;;;15.80;99.90;;;;;;4981152;28;20072;-65
2022/10/25 07:33:14;;;;;;;44.53;24.58;;;15.80;99.90;;;;;;4976907;28;20058;-65
2022/10/25 07:35:44;;;;;;;54.67;25.83;;;15.70;99.90;;;;;;4975259;28;20066;-68
2022/10/25 07:38:12;;;;;;;51.70;27.77;;;15.60;99.90;;;;;;5042308;28;20051;-68
2022/10/25 07:40:39;;;;;;;50.58;28.02;;;15.50;99.90;;;;;;4975004;28;20042;-68
2022/10/25 07:43:06;;;;;;;60.40;26.30;;;15.60;99.90;;;;;;4974827;28;20039;-68
2022/10/25 07:45:33;;;;;;;59.35;26.70;;;16.00;99.90;;;;;;4975020;28;20043;-68
2022/10/25 07:48:02;;;;;;;62.75;28.33;;;16.50;99.90;;;;;;4974860;28;20108;-68
2022/10/25 07:50:29;;;;;;;54.58;25.52;;;17.00;99.90;;;;;;4974833;28;20554;-68
2022/10/25 07:52:57;;;;;;;57.67;29.25;;;17.30;99.90;;;;;;4974263;28;20104;-68
2022/10/25 07:55:25;;;;;;;54.20;25.83;;;17.50;99.90;;;;;;4974191;28;20089;-68
2022/10/25 07:57:52;;;;;;;59.70;27.25;;;17.40;99.90;;;;;;4973992;28;20096;-69
2022/10/25 08:00:19;;;;;;;55.80;25.52;;;17.40;99.90;;;;;;5040759;28;20402;-68
2022/10/25 08:02:46;;;;;;;50.95;24.45;;;17.60;99.90;;;;;;4973916;28;20504;-68
2022/10/25 08:05:15;;;;;;;47.80;24.15;;;17.70;99.90;;;;;;4974041;28;20100;-69
2022/10/25 08:07:42;;;;;;;38.33;20.50;;;17.80;99.90;;;;;;4974022;28;20046;-68
2022/10/25 08:10:10;;;;;;;42.22;20.55;;;17.90;99.90;;;;;;4974126;28;20050;-68
2022/10/25 08:12:37;;;;;;;47.08;19.85;;;18.00;99.90;;;;;;4973952;28;20440;-68
2022/10/25 08:15:05;;;;;;;36.88;20.23;;;17.90;99.90;;;;;;4973756;28;20081;-68
2022/10/25 08:17:32;;;;;;;39.85;17.60;;;18.20;99.90;;;;;;4974085;28;20112;-68
2022/10/25 08:20:00;;;;;;;43.10;19.10;;;18.60;99.90;;;;;;4973985;28;20058;-67
2022/10/25 08:22:29;;;;;;;37.03;18.45;;;18.70;99.90;;;;;;4973469;28;20075;-68
2022/10/25 08:24:56;;;;;;;41.17;19.00;;;18.90;99.90;;;;;;4973514;28;20344;-68
2022/10/25 08:27:23;;;;;;;34.65;17.42;;;19.10;99.90;;;;;;4973429;28;20039;-67
2022/10/25 08:29:50;;;;;;;41.00;18.65;;;19.10;99.90;;;;;;4973840;28;20046;-68
2022/10/25 08:32:18;;;;;;;39.35;19.63;;;19.40;99.90;;;;;;4972645;28;20051;-68
2022/10/25 08:34:45;;;;;;;49.05;20.25;;;19.80;99.90;;;;;;4973121;28;20509;-68
2022/10/25 08:37:13;;;;;;;42.40;20.58;;;20.10;99.90;;;;;;4973854;28;20551;-68
2022/10/25 08:39:43;;;;;;;45.03;21.67;;;20.20;99.90;;;;;;4974097;28;20043;-68
2022/10/25 08:42:20;;;;;;;36.85;17.80;;;20.30;99.90;;;;;;4973652;28;20100;-67
2022/10/25 08:44:55;;;;;;;38.80;17.60;;;20.50;99.90;;;;;;4973030;28;20486;-69
2022/10/25 08:47:28;;;;;;;43.15;24.92;;;20.60;99.90;;;;;;4973760;28;20050;-69
2022/10/25 08:50:02;;;;;;;50.08;28.00;;;20.70;99.90;;;;;;4973672;28;20047;-68
2022/10/25 08:52:33;;;;;;;42.75;23.90;;;20.60;99.90;;;;;;4973212;28;20055;-68
2022/10/25 08:55:04;;;;;;;46.25;21.33;;;20.70;99.90;;;;;;4973112;28;20043;-68
2022/10/25 08:57:34;;;;;;;44.30;22.80;;;20.70;99.90;;;;;;4973354;28;20587;-69
2022/10/25 09:00:06;;;;;;;34.67;18.73;;;20.60;99.90;;;;;;4973701;28;20125;-68
2022/10/25 09:02:39;;;;;;;41.17;21.85;;;20.60;99.90;;;;;;4972918;28;20042;-68
2022/10/25 09:05:14;;;;;;;36.63;20.20;;;20.60;99.90;;;;;;4972871;28;20042;-70
2022/10/25 09:08:03;;;;;;;38.40;22.00;;;20.60;99.90;;;;;;5039390;28;20076;-69
2022/10/25 09:10:49;;;;;;;42.20;21.45;;;20.60;99.90;;;;;;5040137;28;20050;-69
2022/10/25 09:13:28;;;;;;;39.15;21.83;;;20.70;99.90;;;;;;4972710;28;20046;-68
2022/10/25 09:16:08;;;;;;;36.25;19.98;;;20.70;99.90;;;;;;5035158;28;20039;-69
2022/10/25 09:18:44;;;;;;;38.30;20.55;;;20.70;99.90;;;;;;4961031;28;20469;-69
2022/10/25 09:21:21;;;;;;;37.45;22.73;;;20.80;99.90;;;;;;4963969;28;20092;-68
2022/10/25 09:23:58;;;;;;;43.78;23.75;;;20.90;99.90;;;;;;4958316;28;20047;-68
2022/10/25 09:26:38;;;;;;;46.85;24.15;;;21.10;99.90;;;;;;4966142;28;20517;-69
2022/10/25 09:29:13;;;;;;;44.90;26.23;;;21.20;99.90;;;;;;4953915;28;20062;-68
2022/10/25 09:31:44;;;;;;;38.72;21.38;;;21.20;99.90;;;;;;4953434;28;20093;-68
2022/10/25 09:34:12;;;;;;;42.80;20.90;;;21.30;99.90;;;;;;4953203;29;20052;-68
2022/10/25 09:36:46;;;;;;;33.55;18.65;;;21.20;99.90;;;;;;4954130;28;20059;-68
2022/10/25 09:39:20;;;;;;;28.05;15.57;;;21.30;99.90;;;;;;4966795;28;20077;-67
2022/10/25 09:41:52;;;;;;;34.95;18.02;;;21.40;99.90;;;;;;4975889;28;20043;-67
2022/10/25 09:44:35;;;;;;;36.35;18.70;;;21.40;99.90;;;;;;5040083;28;20051;-67
2022/10/25 09:47:14;;;;;;;32.45;14.95;;;21.50;99.90;;;;;;4958383;28;20074;-67
2022/10/25 09:49:49;;;;;;;31.15;17.20;;;21.60;99.90;;;;;;4958915;28;20055;-67
2022/10/25 09:52:24;;;;;;;37.20;17.13;;;21.50;99.90;;;;;;4970688;28;20074;-68
2022/10/25 09:54:55;;;;;;;27.90;15.25;;;21.50;99.90;;;;;;4972482;28;20092;-67
2022/10/25 09:57:23;;;;;;;33.83;20.38;;;21.40;99.90;;;;;;4958053;28;20138;-67
2022/10/25 09:59:52;;;;;;;34.35;15.23;;;21.40;99.90;;;;;;4953671;28;20047;-66
2022/10/25 10:02:24;;;;;;;27.65;15.43;;;21.30;99.90;;;;;;5019686;28;20427;-66
2022/10/25 10:04:51;;;;;;;39.53;19.40;;;21.30;99.90;;;;;;4952457;29;20509;-68
2022/10/25 10:07:25;;;;;;;33.22;17.95;;;21.40;99.90;;;;;;4953376;29;20046;-67
2022/10/25 10:09:57;;;;;;;28.13;17.70;;;21.40;99.90;;;;;;4953022;29;20433;-68
2022/10/25 10:12:30;;;;;;;35.25;20.05;;;21.50;99.90;;;;;;4952511;28;20050;-65
2022/10/25 10:15:01;;;;;;;31.60;15.10;;;21.50;99.90;;;;;;4952606;29;20043;-68
2022/10/25 10:17:32;;;;;;;28.48;15.35;;;21.50;99.90;;;;;;4955864;28;20086;-68
2022/10/25 10:20:13;;;;;;;34.83;15.38;;;21.50;99.90;;;;;;4964246;28;20050;-68
2022/10/25 10:22:47;;;;;;;22.05;12.90;;;21.50;99.90;;;;;;4952118;28;20043;-68
2022/10/25 10:25:18;;;;;;;28.60;17.73;;;21.40;99.90;;;;;;4957699;28;20101;-68
2022/10/25 10:27:47;;;;;;;30.70;15.80;;;21.40;99.90;;;;;;4958257;28;20046;-68
2022/10/25 10:30:27;;;;;;;40.03;20.52;;;21.40;99.90;;;;;;4957000;28;20422;-68
2022/10/25 10:33:00;;;;;;;41.10;23.95;;;21.40;99.90;;;;;;4966446;28;20043;-69
2022/10/25 10:35:33;;;;;;;31.20;17.38;;;21.40;99.90;;;;;;4968872;28;20055;-68
2022/10/25 10:38:19;;;;;;;36.40;21.10;;;21.40;99.90;;;;;;4953145;29;20490;-67
2022/10/25 10:40:46;;;;;;;33.30;16.33;;;21.30;99.90;;;;;;4950325;29;20574;-68
2022/10/25 10:43:29;;;;;;;30.52;17.38;;;21.30;99.90;;;;;;5020706;28;20047;-69
2022/10/25 10:46:03;;;;;;;33.63;17.02;;;21.30;99.90;;;;;;4955829;28;20118;-68
2022/10/25 10:48:35;;;;;;;33.85;18.15;;;21.30;99.90;;;;;;4946940;28;20145;-67
2022/10/25 10:51:03;;;;;;;35.70;18.58;;;21.20;99.90;;;;;;4956526;28;20293;-66
2022/10/25 10:53:31;;;;;;;36.30;18.20;;;21.20;99.90;;;;;;4966731;28;20032;-70
2022/10/25 10:56:01;;;;;;;40.28;20.85;;;21.20;99.90;;;;;;4954304;28;20043;-69
2022/10/25 10:58:33;;;;;;;40.45;24.15;;;21.20;99.90;;;;;;4961928;28;20051;-71
2022/10/25 11:01:02;;;;;;;33.55;19.48;;;21.30;99.90;;;;;;4955847;28;20479;-70
2022/10/25 11:03:48;;;;;;;40.58;19.25;;;21.30;99.90;;;;;;4966631;28;20046;-70
2022/10/25 11:06:23;;;;;;;36.13;21.08;;;21.30;99.90;;;;;;4936260;29;20479;-71
2022/10/25 11:09:12;;;;;;;40.03;21.20;;;21.40;99.90;;;;;;5002726;28;20043;-71
2022/10/25 11:11:40;;;;;;;30.48;18.20;;;21.40;99.90;;;;;;4936437;29;20071;-71
2022/10/25 11:14:12;;;;;;;32.67;18.77;;;21.40;99.90;;;;;;4936064;29;20122;-71
2022/10/25 11:16:55;;;;;;;26.45;14.48;;;21.40;99.90;;;;;;4936274;29;20129;-70
2022/10/25 11:19:51;;;;;;;31.90;15.40;;;21.30;99.90;;;;;;4936090;29;20055;-71
2022/10/25 11:22:39;;;;;;;41.45;18.00;;;21.20;99.90;;;;;;4948397;28;20503;-71
2022/10/25 11:25:24;;;;;;;30.20;16.80;;;21.20;99.90;;;;;;4955652;28;20035;-70
2022/10/25 11:28:17;;;;;;;36.95;17.98;;;21.30;99.90;;;;;;4955888;28;20126;-70
2022/10/25 11:30:56;;;;;;;30.10;15.82;;;21.30;99.90;;;;;;4954701;28;20051;-70
2022/10/25 11:33:37;;;;;;;26.50;11.90;;;21.30;99.90;;;;;;4954197;28;20054;-70
2022/10/25 11:36:34;;;;;;;11.38;5.93;;;21.40;99.90;;;;;;4954361;29;20062;-71
2022/10/25 11:39:23;;;;;;;18.45;7.10;;;21.50;99.90;;;;;;4957806;28;20464;-69
2022/10/25 11:41:53;;;;;;;18.45;9.35;;;21.70;99.90;;;;;;4963198;28;20545;-70
2022/10/25 11:44:39;;;;;;;19.48;9.38;;;21.70;99.90;;;;;;4965613;28;20433;-70
2022/10/25 11:47:17;;;;;;;15.13;6.80;;;21.60;99.90;;;;;;4966367;28;20055;-71
2022/10/25 11:49:58;;;;;;;12.73;6.38;;;21.70;99.90;;;;;;4961662;28;20070;-70
2022/10/25 11:52:47;;;;;;;11.82;6.32;;;21.80;99.90;;;;;;4947989;28;20039;-70
2022/10/25 11:55:26;;;;;;;11.75;5.60;;;21.90;99.90;;;;;;4967090;28;20121;-71
2022/10/25 11:58:01;;;;;;;12.65;5.82;;;21.90;99.90;;;;;;4965951;28;20051;-71
2022/10/25 12:00:40;;;;;;;16.60;6.00;;;22.00;99.90;;;;;;4959624;28;20057;-71
2022/10/25 12:03:25;;;;;;;10.95;5.90;;;21.80;99.90;;;;;;4973482;28;20501;-71
2022/10/25 12:06:01;;;;;;;13.00;6.35;;;21.80;99.90;;;;;;4967898;28;20062;-71
2022/10/25 12:30:14;;;;;;;19.45;8.05;;;22.20;99.90;;;;;;1486614;26;20101;-65
2022/10/25 12:32:44;;;;;;;11.80;7.15;;;22.20;99.90;;;;;;4971078;28;20067;-65
2022/10/25 12:35:20;;;;;;;8.02;4.65;;;22.10;99.90;;;;;;4973690;28;20122;-65
2022/10/25 12:37:52;;;;;;;11.95;4.47;;;21.90;99.90;;;;;;4991670;23;20536;-62
2022/10/25 12:40:22;;;;;;;9.20;3.38;;;21.90;99.90;;;;;;4994169;28;20066;-62
2022/10/25 12:42:53;;;;;;;8.65;4.10;;;21.50;99.90;;;;;;5007944;28;20245;-63
2022/10/25 12:45:44;;;;;;;10.50;4.28;;;21.50;99.90;;;;;;4987449;28;20066;-64
2022/10/25 12:48:25;;;;;;;9.07;3.33;;;21.50;99.70;;;;;;5407721;23;20137;-67
2022/10/25 12:51:17;;;;;;;7.43;2.97;;;21.50;98.00;;;;;;4961626;28;20110;-65
2022/10/25 12:54:05;;;;;;;9.98;3.78;;;21.50;97.80;;;;;;4981465;28;20137;-64
2022/10/25 12:56:51;;;;;;;7.10;3.08;;;21.50;97.40;;;;;;4993196;28;20139;-64
2022/10/25 12:59:33;;;;;;;6.37;3.10;;;21.50;95.70;;;;;;4975912;28;20142;-64
2022/10/25 13:02:20;;;;;;;8.68;4.57;;;21.40;95.60;;;;;;4973596;28;20589;-65
2022/10/25 13:05:10;;;;;;;11.75;4.78;;;21.50;95.50;;;;;;4973510;28;20043;-64
2022/10/25 13:07:38;;;;;;;10.00;3.38;;;21.50;95.80;;;;;;4962294;28;20079;-64
2022/10/25 13:10:15;;;;;;;8.38;4.15;;;21.50;95.30;;;;;;4973346;28;20113;-65
2022/10/25 13:12:57;;;;;;;8.90;3.03;;;21.60;95.60;;;;;;4972639;28;20572;-64